createdAt,value
2022-09-06T00:00:15.015Z,25.73
2022-09-06T00:02:43.529Z,24.63
2022-09-06T00:05:12.355Z,25.05
2022-09-06T00:07:39.732Z,24.20
2022-09-06T00:10:06.906Z,24.17
2022-09-06T00:12:34.677Z,22.88
2022-09-06T00:15:01.597Z,21.48
2022-09-06T00:17:28.483Z,21.75
2022-09-06T00:19:55.342Z,21.50
2022-09-06T00:22:22.194Z,21.15
2022-09-06T00:24:49.056Z,21.83
2022-09-06T00:27:16.037Z,21.25
2022-09-06T00:29:42.887Z,19.70
2022-09-06T00:32:09.827Z,20.98
2022-09-06T00:34:36.712Z,20.50
2022-09-06T00:37:03.565Z,21.10
2022-09-06T00:39:30.434Z,19.80
2022-09-06T00:41:57.344Z,19.70
2022-09-06T00:44:24.384Z,20.50
2022-09-06T00:46:53.949Z,19.85
2022-09-06T00:49:32.728Z,19.77
2022-09-06T00:52:05.017Z,19.77
2022-09-06T00:54:32.448Z,19.92
2022-09-06T00:56:59.880Z,20.33
2022-09-06T00:59:30.167Z,20.08
2022-09-06T01:01:57.359Z,20.08
2022-09-06T01:04:24.966Z,20.33
2022-09-06T01:06:54.967Z,21.58
2022-09-06T01:09:32.153Z,20.13
2022-09-06T01:12:36.507Z,22.33
2022-09-06T01:15:15.393Z,22.52
2022-09-06T01:17:47.968Z,20.52
2022-09-06T01:20:29.550Z,19.73
2022-09-06T01:23:08.279Z,20.17
2022-09-06T01:25:47.140Z,20.33
2022-09-06T01:28:28.560Z,19.45
2022-09-06T01:31:20.509Z,21.15
2022-09-06T01:34:11.223Z,22.00
2022-09-06T01:37:09.100Z,23.33
2022-09-06T01:39:39.188Z,23.10
2022-09-06T01:42:15.816Z,25.33
2022-09-06T01:45:05.807Z,24.63
2022-09-06T01:47:35.692Z,25.48
2022-09-06T01:50:19.674Z,25.50
2022-09-06T01:53:09.256Z,25.55
2022-09-06T01:55:44.882Z,23.30
2022-09-06T01:58:48.703Z,22.00
2022-09-06T02:01:45.963Z,21.67
2022-09-06T02:04:17.064Z,21.08
2022-09-06T02:06:52.914Z,21.05
2022-09-06T02:09:23.774Z,21.33
2022-09-06T02:12:00.543Z,22.03
2022-09-06T02:14:45.939Z,22.67
2022-09-06T02:17:19.457Z,22.35
2022-09-06T02:19:55.610Z,22.27
2022-09-06T02:22:27.112Z,21.13
2022-09-06T02:24:56.591Z,21.30
2022-09-06T02:27:23.548Z,23.92
2022-09-06T02:29:50.425Z,25.42
2022-09-06T02:32:23.096Z,24.92
2022-09-06T02:34:55.593Z,25.23
2022-09-06T02:37:26.134Z,24.33
2022-09-06T02:39:56.173Z,23.67
2022-09-06T02:42:24.122Z,23.33
2022-09-06T02:44:50.941Z,21.55
2022-09-06T02:47:18.190Z,21.85
2022-09-06T02:49:45.020Z,21.63
2022-09-06T02:52:12.077Z,22.48
2022-09-06T02:54:38.925Z,22.17
2022-09-06T02:57:05.833Z,22.45
2022-09-06T02:59:32.772Z,24.73
2022-09-06T03:02:00.271Z,24.45
2022-09-06T03:04:27.176Z,22.35
2022-09-06T03:06:54.000Z,23.83
2022-09-06T03:09:20.813Z,22.75
2022-09-06T03:11:47.635Z,24.17
2022-09-06T03:14:16.997Z,24.17
2022-09-06T03:16:43.924Z,23.38
2022-09-06T03:19:11.010Z,25.13
2022-09-06T03:21:37.823Z,25.98
2022-09-06T03:24:04.804Z,23.25
2022-09-06T03:26:31.708Z,25.20
2022-09-06T03:28:58.527Z,25.38
2022-09-06T03:31:25.400Z,23.88
2022-09-06T03:33:52.295Z,22.85
2022-09-06T03:36:19.152Z,24.48
2022-09-06T03:38:46.118Z,23.23
2022-09-06T03:41:13.007Z,25.08
2022-09-06T03:43:39.838Z,25.15
2022-09-06T03:46:06.673Z,27.40
2022-09-06T03:48:33.707Z,27.33
2022-09-06T03:51:00.595Z,26.60
2022-09-06T03:53:28.597Z,26.23
2022-09-06T03:55:58.155Z,27.60
2022-09-06T03:58:28.743Z,28.58
2022-09-06T04:01:08.271Z,25.05
2022-09-06T04:03:35.999Z,25.00
2022-09-06T04:06:04.532Z,24.80
2022-09-06T04:08:32.166Z,25.83
2022-09-06T04:10:59.957Z,25.67
2022-09-06T04:13:29.018Z,27.23
2022-09-06T04:15:56.426Z,25.80
2022-09-06T04:18:24.241Z,23.60
2022-09-06T04:20:52.783Z,23.38
2022-09-06T04:23:20.330Z,22.27
2022-09-06T04:25:48.172Z,22.60
2022-09-06T04:28:15.328Z,24.00
2022-09-06T04:30:42.291Z,25.10
2022-09-06T04:33:09.153Z,24.92
2022-09-06T04:35:36.349Z,25.30
2022-09-06T04:38:04.163Z,26.77
2022-09-06T04:40:31.010Z,27.10
2022-09-06T04:42:57.796Z,25.42
2022-09-06T04:45:25.003Z,24.38
2022-09-06T04:47:51.932Z,24.95
2022-09-06T04:50:18.860Z,26.30
2022-09-06T04:52:45.688Z,26.75
2022-09-06T04:55:12.556Z,25.20
2022-09-06T04:57:44.454Z,28.23
2022-09-06T05:00:13.115Z,28.15
2022-09-06T05:02:40.064Z,27.15
2022-09-06T05:05:07.199Z,25.25
2022-09-06T05:07:34.032Z,24.45
2022-09-06T05:10:00.837Z,24.08
2022-09-06T05:12:27.828Z,23.58
2022-09-06T05:14:54.703Z,23.40
2022-09-06T05:17:21.551Z,23.45
2022-09-06T05:19:54.406Z,22.40
2022-09-06T05:22:21.326Z,23.58
2022-09-06T05:24:48.178Z,24.80
2022-09-06T05:28:02.978Z,24.20
2022-09-06T05:30:29.805Z,24.00
2022-09-06T05:32:56.651Z,25.73
2022-09-06T05:35:26.526Z,26.65
2022-09-06T05:37:53.437Z,27.85
2022-09-06T05:40:20.389Z,27.70
2022-09-06T05:42:47.235Z,28.10
2022-09-06T05:45:14.384Z,25.45
2022-09-06T05:48:36.100Z,25.13
2022-09-06T05:53:37.339Z,25.17
2022-09-06T05:56:05.252Z,26.95
2022-09-06T05:58:32.251Z,25.45
2022-09-06T06:05:13.202Z,28.10
2022-09-06T06:11:41.116Z,29.95
2022-09-06T06:21:41.171Z,29.67
2022-09-06T06:24:08.249Z,32.00
2022-09-06T06:26:36.949Z,32.78
2022-09-06T06:32:50.521Z,33.45
2022-09-06T06:35:17.351Z,36.03
2022-09-06T06:37:45.793Z,34.72
2022-09-06T06:40:13.628Z,35.58
2022-09-06T06:43:17.044Z,35.67
2022-09-06T06:45:48.189Z,36.17
2022-09-06T06:48:15.058Z,35.28
2022-09-06T06:50:42.000Z,32.83
2022-09-06T06:53:08.941Z,33.17
2022-09-06T06:55:35.839Z,33.50
2022-09-06T06:58:03.888Z,32.38
2022-09-06T07:00:30.902Z,30.88
2022-09-06T07:02:58.016Z,28.63
2022-09-06T07:08:12.763Z,25.38
2022-09-06T07:10:39.592Z,26.45
2022-09-06T07:13:06.459Z,25.98
2022-09-06T07:15:33.284Z,26.02
2022-09-06T07:18:00.192Z,25.95
2022-09-06T07:20:27.339Z,24.92
2022-09-06T07:25:49.314Z,24.35
2022-09-06T07:28:16.127Z,23.13
2022-09-06T07:30:42.979Z,22.73
2022-09-06T07:33:09.894Z,21.73
2022-09-06T07:35:36.816Z,21.73
2022-09-06T07:38:04.799Z,20.50
2022-09-06T07:40:31.737Z,20.60
2022-09-06T07:50:54.645Z,19.55
2022-09-06T07:54:31.555Z,18.63
2022-09-06T08:01:20.264Z,19.02
2022-09-06T08:03:48.098Z,18.83
2022-09-06T08:06:15.102Z,18.60
2022-09-06T08:08:57.967Z,18.33
2022-09-06T08:11:29.031Z,19.13
2022-09-06T08:13:56.805Z,18.23
2022-09-06T08:16:26.119Z,18.15
2022-09-06T08:18:55.232Z,18.20
2022-09-06T08:21:23.719Z,17.35
2022-09-06T08:23:53.669Z,18.40
2022-09-06T08:26:22.447Z,18.00
2022-09-06T08:28:57.486Z,17.55
2022-09-06T08:31:24.651Z,17.15
2022-09-06T08:33:51.725Z,16.77
2022-09-06T08:36:18.779Z,16.25
2022-09-06T08:38:48.337Z,16.63
2022-09-06T08:41:15.158Z,15.82
2022-09-06T08:47:04.657Z,16.65
2022-09-06T08:49:36.559Z,16.70
2022-09-06T08:52:10.019Z,15.50
2022-09-06T08:55:01.193Z,14.77
2022-09-06T08:58:05.523Z,15.02
2022-09-06T09:00:35.097Z,14.27
2022-09-06T09:03:15.927Z,14.30
2022-09-06T09:05:47.016Z,15.27
2022-09-06T09:08:29.602Z,15.25
2022-09-06T09:11:03.808Z,14.98
2022-09-06T09:13:59.239Z,14.60
2022-09-06T09:16:26.852Z,15.32
2022-09-06T09:18:57.745Z,13.95
2022-09-06T09:21:30.484Z,13.82
2022-09-06T09:24:03.133Z,14.20
2022-09-06T09:26:38.539Z,14.57
2022-09-06T09:29:13.993Z,13.73
2022-09-06T09:32:07.160Z,15.40
2022-09-06T09:34:39.757Z,13.85
2022-09-06T09:40:01.276Z,13.82
2022-09-06T09:42:32.384Z,13.45
2022-09-06T09:45:00.310Z,13.35
2022-09-06T09:47:30.701Z,13.20
2022-09-06T09:49:58.652Z,13.98
2022-09-06T09:52:32.460Z,13.05
2022-09-06T09:55:05.555Z,13.20
2022-09-06T09:57:44.808Z,11.70
2022-09-06T10:00:13.981Z,12.57
2022-09-06T10:02:43.010Z,11.57
2022-09-06T10:05:13.010Z,12.50
2022-09-06T10:07:46.164Z,12.20
2022-09-06T10:10:23.499Z,11.48
2022-09-06T10:13:08.767Z,11.38
2022-09-06T10:15:40.579Z,11.25
2022-09-06T10:18:33.535Z,10.60
2022-09-06T10:21:10.893Z,11.07
2022-09-06T10:26:42.031Z,10.77
2022-09-06T10:29:13.084Z,11.20
2022-09-06T10:31:39.918Z,10.77
2022-09-06T10:34:28.310Z,10.43
2022-09-06T10:37:19.795Z,10.75
2022-09-06T10:39:53.986Z,10.43
2022-09-06T10:42:40.569Z,9.55
2022-09-06T10:45:36.100Z,10.38
2022-09-06T10:48:03.442Z,9.80
2022-09-06T10:50:36.168Z,9.88
2022-09-06T10:53:11.716Z,9.82
2022-09-06T10:55:41.448Z,9.40
2022-09-06T10:58:19.719Z,9.38
2022-09-06T11:00:49.461Z,9.48
2022-09-06T11:06:26.833Z,9.45
2022-09-06T11:09:41.687Z,9.68
2022-09-06T11:12:19.715Z,8.80
2022-09-06T11:14:47.014Z,9.55
2022-09-06T11:17:32.580Z,9.20
2022-09-06T11:20:15.476Z,9.65
2022-09-06T11:23:02.759Z,9.38
2022-09-06T11:25:55.546Z,9.25
2022-09-06T11:28:39.210Z,9.43
2022-09-06T11:31:09.269Z,8.32
2022-09-06T11:33:39.791Z,9.45
2022-09-06T11:36:34.455Z,8.82
2022-09-06T11:39:03.944Z,8.10
2022-09-06T11:41:36.955Z,8.38
2022-09-06T11:44:04.798Z,8.75
2022-09-06T11:46:34.731Z,8.40
2022-09-06T11:49:33.194Z,9.13
2022-09-06T11:52:00.507Z,8.13
2022-09-06T11:54:45.000Z,8.00
2022-09-06T11:57:16.108Z,8.23
2022-09-06T11:59:54.486Z,8.27
2022-09-06T12:02:41.206Z,8.27
2022-09-06T12:05:09.835Z,7.75
2022-09-06T12:07:38.981Z,8.02
2022-09-06T12:10:40.758Z,8.25
2022-09-06T12:13:52.555Z,7.55
2022-09-06T12:16:19.509Z,7.15
2022-09-06T12:18:49.592Z,7.43
2022-09-06T12:21:40.191Z,7.90
2022-09-06T12:24:09.883Z,7.47
2022-09-06T12:27:15.727Z,7.55
2022-09-06T12:30:01.866Z,7.28
2022-09-06T12:32:37.210Z,7.75
2022-09-06T12:37:58.452Z,7.38
2022-09-06T12:40:28.523Z,7.13
2022-09-06T12:42:55.890Z,7.57
2022-09-06T12:45:27.366Z,7.43
2022-09-06T12:48:09.533Z,7.65
2022-09-06T12:50:37.495Z,8.07
2022-09-06T12:53:23.155Z,7.75
2022-09-06T12:56:09.389Z,6.88
2022-09-06T12:58:36.956Z,7.63
2022-09-06T13:01:35.962Z,7.20
2022-09-06T13:04:11.610Z,6.90
2022-09-06T13:06:42.540Z,7.63
2022-09-06T13:09:13.900Z,7.38
2022-09-06T13:14:19.933Z,7.53
2022-09-06T13:16:49.447Z,7.18
2022-09-06T13:19:34.117Z,7.95
2022-09-06T13:22:03.841Z,6.00
2022-09-06T13:24:45.849Z,7.13
2022-09-06T13:27:30.709Z,7.07
2022-09-06T13:30:02.361Z,6.88
2022-09-06T13:32:30.102Z,7.28
2022-09-06T13:34:59.624Z,7.10
2022-09-06T13:37:29.265Z,7.63
2022-09-06T13:39:57.740Z,7.53
2022-09-06T13:42:24.689Z,7.80
2022-09-06T13:44:51.569Z,8.00
2022-09-06T13:47:18.337Z,7.35
2022-09-06T13:49:45.219Z,7.22
2022-09-06T13:52:12.067Z,6.72
2022-09-06T13:54:40.031Z,7.10
2022-09-06T13:57:06.871Z,6.97
2022-09-06T13:59:33.623Z,7.00
2022-09-06T14:02:12.978Z,7.35
2022-09-06T14:04:40.222Z,7.60
2022-09-06T14:07:07.356Z,6.90
2022-09-06T14:09:34.718Z,7.53
2022-09-06T14:12:29.905Z,7.75
2022-09-06T14:14:56.860Z,7.43
2022-09-06T14:17:23.826Z,7.63
2022-09-06T14:19:51.068Z,7.72
2022-09-06T14:22:18.177Z,7.88
2022-09-06T14:24:45.133Z,7.82
2022-09-06T14:27:12.327Z,7.18
2022-09-06T14:29:40.090Z,7.63
2022-09-06T14:32:07.330Z,7.30
2022-09-06T14:34:34.228Z,8.40
2022-09-06T14:37:01.169Z,7.63
2022-09-06T14:39:28.126Z,7.93
2022-09-06T14:41:55.234Z,8.07
2022-09-06T14:44:22.156Z,8.10
2022-09-06T14:46:53.374Z,7.90
2022-09-06T14:49:25.313Z,8.27
2022-09-06T14:51:53.816Z,8.50
2022-09-06T14:54:20.972Z,8.07
2022-09-06T14:56:48.018Z,8.23
2022-09-06T14:59:14.942Z,8.88
2022-09-06T15:01:41.956Z,8.00
2022-09-06T15:04:11.778Z,8.40
2022-09-06T15:06:40.787Z,9.18
2022-09-06T15:09:08.259Z,8.85
2022-09-06T15:11:46.983Z,7.70
2022-09-06T15:14:16.849Z,8.25
2022-09-06T15:16:44.835Z,8.23
2022-09-06T15:19:12.111Z,8.80
2022-09-06T15:21:39.168Z,8.23
2022-09-06T15:24:11.545Z,8.10
2022-09-06T15:26:39.731Z,8.45
2022-09-06T15:29:06.682Z,8.55
2022-09-06T15:31:34.595Z,8.18
2022-09-06T15:34:02.952Z,7.95
2022-09-06T15:36:30.270Z,8.15
2022-09-06T15:39:01.001Z,7.90
2022-09-06T15:41:30.918Z,8.37
2022-09-06T15:44:18.836Z,8.07
2022-09-06T15:47:00.236Z,8.75
2022-09-06T15:49:31.712Z,8.63
2022-09-06T15:54:47.188Z,8.45
2022-09-06T15:57:16.313Z,8.85
2022-09-06T15:59:43.624Z,8.43
2022-09-06T16:02:11.280Z,8.43
2022-09-06T16:04:38.379Z,8.60
2022-09-06T16:07:05.825Z,7.93
2022-09-06T16:09:32.720Z,8.10
2022-09-06T16:11:59.673Z,7.63
2022-09-06T16:14:28.140Z,6.88
2022-09-06T16:16:56.261Z,7.05
2022-09-06T16:19:25.875Z,6.75
2022-09-06T16:21:52.734Z,6.97
2022-09-06T16:24:19.691Z,7.55
2022-09-06T16:26:46.936Z,7.63
2022-09-06T16:29:16.470Z,7.13
2022-09-06T16:31:43.936Z,7.88
2022-09-06T16:34:12.034Z,8.00
2022-09-06T16:36:39.144Z,8.00
2022-09-06T16:39:06.940Z,7.45
2022-09-06T16:41:42.586Z,7.95
2022-09-06T16:44:16.316Z,8.38
2022-09-06T16:46:45.437Z,9.32
2022-09-06T16:49:12.392Z,8.93
2022-09-06T16:51:39.375Z,8.70
2022-09-06T16:54:06.309Z,9.18
2022-09-06T16:56:35.861Z,9.13
2022-09-06T16:59:06.049Z,8.68
2022-09-06T17:01:33.584Z,8.70
2022-09-06T17:04:04.243Z,9.50
2022-09-06T17:06:33.144Z,9.30
2022-09-06T17:09:00.335Z,9.50
2022-09-06T17:11:28.596Z,9.13
2022-09-06T17:13:56.968Z,8.80
2022-09-06T17:16:43.452Z,8.93
2022-09-06T17:19:10.648Z,9.68
2022-09-06T17:21:39.218Z,9.73
2022-09-06T17:24:07.375Z,8.65
2022-09-06T17:26:37.277Z,9.68
2022-09-06T17:29:04.634Z,9.45
2022-09-06T17:31:31.900Z,9.70
2022-09-06T17:34:01.837Z,9.43
2022-09-06T17:36:31.003Z,9.60
2022-09-06T17:39:08.208Z,9.02
2022-09-06T17:41:45.614Z,8.55
2022-09-06T17:44:14.508Z,8.48
2022-09-06T17:46:57.104Z,7.40
2022-09-06T17:49:24.567Z,6.78
2022-09-06T17:51:52.170Z,6.55
2022-09-06T17:54:19.140Z,7.15
2022-09-06T17:56:46.049Z,6.90
2022-09-06T17:59:35.157Z,7.00
2022-09-06T18:02:02.870Z,7.07
2022-09-06T18:04:29.837Z,7.10
2022-09-06T18:06:56.731Z,6.93
2022-09-06T18:09:23.635Z,6.32
2022-09-06T18:11:50.526Z,6.93
2022-09-06T18:14:21.011Z,7.00
2022-09-06T18:16:52.154Z,6.60
2022-09-06T18:19:19.166Z,6.10
2022-09-06T18:21:47.084Z,6.22
2022-09-06T18:24:14.095Z,6.63
2022-09-06T18:26:41.697Z,6.70
2022-09-06T18:29:12.065Z,6.93
2022-09-06T18:31:39.662Z,7.50
2022-09-06T18:34:07.927Z,7.10
2022-09-06T18:36:35.257Z,7.60
2022-09-06T18:46:46.281Z,10.30
2022-09-06T18:50:20.687Z,11.05
2022-09-06T18:52:47.545Z,11.25
2022-09-06T18:55:14.437Z,12.07
2022-09-06T18:57:41.294Z,12.52
2022-09-06T19:00:08.929Z,12.68
2022-09-06T19:02:35.852Z,12.10
2022-09-06T19:05:02.873Z,11.35
2022-09-06T19:07:29.911Z,11.98
2022-09-06T19:09:57.760Z,10.75
2022-09-06T19:12:24.774Z,11.70
2022-09-06T19:14:51.719Z,12.75
2022-09-06T19:17:18.559Z,12.98
2022-09-06T19:19:45.409Z,11.60
2022-09-06T19:22:12.254Z,13.00
2022-09-06T19:24:40.016Z,12.32
2022-09-06T19:27:07.939Z,11.85
2022-09-06T19:29:34.849Z,11.48
2022-09-06T19:32:01.883Z,12.38
2022-09-06T19:34:29.176Z,11.45
2022-09-06T19:37:13.421Z,11.80
2022-09-06T19:43:30.865Z,11.55
2022-09-06T19:46:00.825Z,12.57
2022-09-06T19:48:55.970Z,11.93
2022-09-06T19:51:24.132Z,12.65
2022-09-06T19:57:57.839Z,11.95
2022-09-06T20:00:24.831Z,12.63
2022-09-06T20:02:51.659Z,11.95
2022-09-06T20:05:18.704Z,12.98
2022-09-06T20:07:45.539Z,12.77
2022-09-06T20:14:00.966Z,14.27
2022-09-06T20:20:42.645Z,13.48
2022-09-06T20:31:26.612Z,12.70
2022-09-06T20:33:56.358Z,12.73
2022-09-06T20:40:11.419Z,14.30
2022-09-06T20:46:28.256Z,13.63
2022-09-06T20:49:10.368Z,13.93
2022-09-06T20:55:26.916Z,13.98
2022-09-06T20:58:54.033Z,13.20
2022-09-06T21:01:24.005Z,12.60
2022-09-06T21:04:26.541Z,14.10
2022-09-06T21:06:56.392Z,14.13
2022-09-06T21:09:23.765Z,14.15
2022-09-06T21:11:52.610Z,14.27
2022-09-06T21:14:19.759Z,15.15
2022-09-06T21:16:46.741Z,15.68
2022-09-06T21:23:44.819Z,14.52
2022-09-06T21:30:08.677Z,19.00
2022-09-06T21:36:58.928Z,22.25
2022-09-06T21:43:33.767Z,21.45
2022-09-06T21:53:37.975Z,19.77
2022-09-06T22:07:37.331Z,17.40
2022-09-06T22:17:38.956Z,13.23
2022-09-06T22:23:59.532Z,11.07
2022-09-06T22:38:00.013Z,10.77
2022-09-06T22:40:26.855Z,10.18
2022-09-06T22:47:02.696Z,10.15
2022-09-06T22:49:29.545Z,10.50
2022-09-06T23:00:10.936Z,10.77
2022-09-06T23:07:02.695Z,11.00
2022-09-06T23:09:44.259Z,11.48
2022-09-06T23:12:11.074Z,12.07
2022-09-06T23:14:38.012Z,11.55
2022-09-06T23:20:55.044Z,10.05
